Estación de Freire

Ultimos registro cada 15 minutos 67
Estación Fecha / Hora Temperatura Humedad Lluvia Velocidad Dirección Radiación Presion
67 Freire 07-05-2026 16:45 8,9 95 0 0 105 40 1009,6
66 Freire 07-05-2026 16:30 9 95 0 0 105 58 1009,6
65 Freire 07-05-2026 16:15 9,1 94 0 0 105 23 1009,6
64 Freire 07-05-2026 16:00 9,1 94 0 0 105 44 1009,6
63 Freire 07-05-2026 15:45 9 94 0,3 0 176 56 1009,6
62 Freire 07-05-2026 15:30 9 94 0 0 176 104 1009,6
61 Freire 07-05-2026 15:15 9 93 0 0 176 102 1009,6
60 Freire 07-05-2026 15:00 8,9 93 0 0 176 116 1009,6
59 Freire 07-05-2026 14:45 8,8 94 0,3 0 176 149 1009,6
58 Freire 07-05-2026 14:30 8,7 93 0 0 106 174 1009,6
57 Freire 07-05-2026 14:15 8,9 91 0 0 161 102 1009,6
56 Freire 07-05-2026 14:00 9,7 86 0 0,4 176 37 1009,6
55 Freire 07-05-2026 13:30 10,2 83 0 0 176 65 1009,6
54 Freire 07-05-2026 13:15 10,2 82 0 0 176 95 1009,6
53 Freire 07-05-2026 13:00 10,3 80 0 0,9 176 107 1009,6
52 Freire 07-05-2026 12:45 10,3 81 0,3 0,4 297 176 1009,6
51 Freire 07-05-2026 12:30 10,2 83 0 0 37 234 1009,6
50 Freire 07-05-2026 12:15 9,8 82 0 0 69 225 1009,6
49 Freire 07-05-2026 12:00 9,6 84 0 1,8 12 232 1009,6
48 Freire 07-05-2026 11:45 9,4 81 0,3 0 27 183 1009,6
47 Freire 07-05-2026 11:30 9,1 85 0 0 354 197 1009,6
46 Freire 07-05-2026 11:15 8,9 84 0 0,4 62 186 1009,6
45 Freire 07-05-2026 11:00 8,6 89 0 0,4 116 267 1009,6
44 Freire 07-05-2026 10:45 8,4 92 0 0 39 237 1009,6
43 Freire 07-05-2026 10:30 8,3 97 0 0 39 283 1009,6
42 Freire 07-05-2026 10:15 8,2 100 0,3 0 104 362 1009,6
41 Freire 07-05-2026 10:00 7,3 100 0 0 103 264 1009,6
40 Freire 07-05-2026 09:45 7,3 100 0 0 103 264 1009,6
39 Freire 07-05-2026 09:30 6,4 100 0 0 103 239 1009,6
38 Freire 07-05-2026 09:15 4,7 100 0 0 176 186 1009,6
37 Freire 07-05-2026 09:00 3,4 99 0 0 176 83 1009,6
36 Freire 07-05-2026 08:45 3,2 99 0 0 176 30 1009,6
35 Freire 07-05-2026 08:30 2,9 98 0 0 102 26 1009,6
34 Freire 07-05-2026 08:15 2,9 98 0 0 102 16 1009,6
33 Freire 07-05-2026 08:00 2,9 98 0,3 0 102 11 1009,6
32 Freire 07-05-2026 07:45 3,1 98 0 0 102 5 1009,6
31 Freire 07-05-2026 07:30 3,3 98 0 0 101 0 1009,6
30 Freire 07-05-2026 07:15 3,7 98 0 0 101 0 1009,6
29 Freire 07-05-2026 07:00 3,8 98 0 0 176 0 1009,6
28 Freire 07-05-2026 06:45 4,1 98 0 0 176 0 1009,6
27 Freire 07-05-2026 06:30 4,4 98 0 0 176 0 1009,6
26 Freire 07-05-2026 06:15 4,8 98 0,3 0 176 0 1009,6
25 Freire 07-05-2026 06:00 5,4 98 0 0 176 0 1009,6
24 Freire 07-05-2026 05:45 5,7 99 0 0 176 0 1009,6
23 Freire 07-05-2026 05:30 5,7 99 0,3 0 176 0 1009,6
22 Freire 07-05-2026 05:15 5,9 99 0 0 176 0 1009,6
21 Freire 07-05-2026 05:00 6 99 0 0 176 0 1009,6
20 Freire 07-05-2026 04:45 6,1 99 0 0 176 0 1009,6
19 Freire 07-05-2026 04:30 6,2 99 0 0 176 0 1009,6
18 Freire 07-05-2026 04:15 6,2 99 0 0 176 0 1009,6
17 Freire 07-05-2026 04:00 6,3 98 0,3 0 176 0 1009,6
16 Freire 07-05-2026 03:45 6,6 99 0 0 176 0 1009,6
15 Freire 07-05-2026 03:30 6,8 99 0 0 176 0 1009,6
14 Freire 07-05-2026 03:15 7,2 99 0,3 0 176 0 1009,6
13 Freire 07-05-2026 03:00 7,3 99 0 0 176 0 1009,6
12 Freire 07-05-2026 02:45 7,2 99 0 0 176 0 1009,6
11 Freire 07-05-2026 02:30 7,2 99 0 0 176 0 1009,6
10 Freire 07-05-2026 02:15 7,2 99 0 0 176 0 1009,6
9 Freire 07-05-2026 02:00 7,1 99 0 0 176 0 1009,6
8 Freire 07-05-2026 01:45 7 99 0,3 0 176 0 1009,6
7 Freire 07-05-2026 01:30 6,9 99 0 0 176 0 1009,6
6 Freire 07-05-2026 01:15 6,7 99 0 0 176 0 1009,6
5 Freire 07-05-2026 01:00 6,6 99 0 0 176 0 1009,6
4 Freire 07-05-2026 00:45 6,4 99 0,3 0 176 0 1009,6
3 Freire 07-05-2026 00:30 6,2 99 0 0 176 0 1009,6
2 Freire 07-05-2026 00:15 6 99 0 0 176 0 1009,6
1 Freire 07-05-2026 00:00 5,7 99 0 0 176 0 1009,6